Ribadesella, Spain
Current Conditions -  °F | °C
As of 7:05 PM on Tuesday 21 Oct 2014 (Local Time) from LEAS Reporting Station
Drizzle Drizzle  
Wind Chill: 17°   Ceiling: 200
Heat Index: 17°   Visibility: 0.5mi
Dew Point: 17°   Wind: 8mph
Humidity: 100%   Direction: 300°WNW
Pressure: 30.39"   Gusts: NA
Location:  43.46°N, 5.06°W
Report Text: LEAS 211705Z 30007KT 0800 R29/P2000 R11/0650D FG DZ BKN002BKN010 17/17 Q1029 NOSIG
Loading
Personal Weather Stations






























Interactive Weather Map
Tropical Storm Tracking
New forecast layout! Learn more

10-Day Weather Forecast

Advertisements
Track Severe Weather on mobile